Terminal Aerodrome Forecast
Issued by NWS

Home | Current Version | Previous Version | Text Only | Print | Product List | Glossary On
Versions: 1 2 3 4 5 6 7 8 9 10 11 12 13 14 15 16 17 18 19 20 21 22 23 24 25 26 27 28 29 30 31 32 33
000
FTAK31 PAFA 080535
TAFASC
TAF
PASC 080535Z 0806/0906 06020G30KT 2SM BLSN BR FEW003 SCT008
      TEMPO 0806/0810 1 1/2SM BR OVC003
     FM081000 08020G30KT 1 1/2SM BR OVC003
     FM082000 08018KT 3SM BLSN BR FEW003=

USA.gov is the U.S. government's official web portal to all federal, state and local government web resources and services.